createdAt,value
2018-06-05T00:00:35.893Z,80.30
2018-06-05T00:03:05.215Z,80.90
2018-06-05T00:05:34.213Z,81.80
2018-06-05T00:08:04.253Z,79.20
2018-06-05T00:10:33.271Z,78.80
2018-06-05T00:13:02.269Z,78.50
2018-06-05T00:15:31.251Z,80.50
2018-06-05T00:18:00.248Z,78.60
2018-06-05T00:20:29.282Z,80.30
2018-06-05T00:23:20.672Z,80.20
2018-06-05T00:25:49.700Z,79.00
2018-06-05T00:28:18.689Z,80.40
2018-06-05T00:30:47.688Z,78.60
2018-06-05T00:33:16.692Z,78.00
2018-06-05T00:35:45.672Z,78.00
2018-06-05T00:38:14.662Z,79.40
2018-06-05T00:40:43.650Z,78.30
2018-06-05T00:43:12.648Z,79.70
2018-06-05T00:45:50.243Z,78.10
2018-06-05T00:48:19.206Z,80.50
2018-06-05T00:50:48.233Z,79.50
2018-06-05T00:53:17.331Z,79.30
2018-06-05T00:55:46.380Z,78.70
2018-06-05T00:58:15.387Z,81.30
2018-06-05T01:00:44.423Z,80.90
2018-06-05T01:03:13.385Z,80.50
2018-06-05T01:05:42.386Z,81.00
2018-06-05T01:08:11.384Z,80.90
2018-06-05T01:10:40.394Z,80.80
2018-06-05T01:13:09.423Z,80.00
2018-06-05T01:15:38.415Z,79.80
2018-06-05T01:18:07.425Z,78.60
2018-06-05T01:20:36.455Z,78.50
2018-06-05T01:23:05.609Z,81.50
2018-06-05T01:25:34.657Z,82.00
2018-06-05T01:28:03.732Z,81.60
2018-06-05T01:30:32.761Z,79.80
2018-06-05T01:33:01.777Z,80.40
2018-06-05T01:35:30.799Z,80.50
2018-06-05T01:37:59.772Z,81.90
2018-06-05T01:40:28.803Z,82.20
2018-06-05T01:42:57.829Z,82.60
2018-06-05T01:45:26.810Z,82.30
2018-06-05T01:47:55.789Z,80.80
2018-06-05T01:50:24.793Z,80.70
2018-06-05T01:52:53.801Z,82.00
2018-06-05T01:55:22.820Z,81.40
2018-06-05T01:57:51.819Z,81.80
2018-06-05T02:00:20.845Z,81.90
2018-06-05T02:02:49.853Z,82.00
2018-06-05T02:05:18.865Z,81.60
2018-06-05T02:07:47.863Z,81.90
2018-06-05T02:10:16.957Z,80.30
2018-06-05T02:12:45.943Z,81.80
2018-06-05T02:15:14.929Z,81.30
2018-06-05T02:17:43.941Z,81.20
2018-06-05T02:20:12.947Z,81.10
2018-06-05T02:22:41.981Z,80.30
2018-06-05T02:25:10.979Z,81.30
2018-06-05T02:27:39.965Z,81.80
2018-06-05T02:30:08.985Z,82.30
2018-06-05T02:32:38.099Z,82.00
2018-06-05T02:35:07.081Z,81.80
2018-06-05T02:37:36.065Z,82.10
2018-06-05T02:42:33.679Z,80.40
2018-06-05T02:45:02.703Z,81.60
2018-06-05T02:47:31.833Z,82.10
2018-06-05T02:50:00.839Z,81.70
2018-06-05T02:52:29.868Z,81.30
2018-06-05T02:54:58.865Z,81.40
2018-06-05T02:57:27.841Z,80.50
2018-06-05T02:59:56.856Z,81.30
2018-06-05T03:02:25.912Z,80.90
2018-06-05T03:04:54.885Z,81.80
2018-06-05T03:07:23.857Z,80.80
2018-06-05T03:09:52.957Z,78.90
2018-06-05T03:12:22.099Z,80.80
2018-06-05T03:14:51.065Z,81.60
2018-06-05T03:19:48.728Z,79.80
2018-06-05T03:22:17.744Z,81.40
2018-06-05T03:24:46.739Z,80.50
2018-06-05T03:27:15.728Z,81.20
2018-06-05T03:29:44.917Z,81.10
2018-06-05T03:32:14.651Z,80.10
2018-06-05T03:34:43.649Z,79.80
2018-06-05T03:37:12.717Z,80.80
2018-06-05T03:42:10.580Z,80.90
2018-06-05T03:44:39.616Z,80.90
2018-06-05T03:47:08.577Z,79.40
2018-06-05T03:49:42.075Z,80.50
2018-06-05T03:52:11.251Z,81.40
2018-06-05T03:54:40.573Z,81.10
2018-06-05T03:57:09.591Z,80.20
2018-06-05T03:59:38.681Z,80.20
2018-06-05T04:02:07.616Z,81.20
2018-06-05T04:04:36.638Z,80.20
2018-06-05T04:07:05.598Z,81.40
2018-06-05T04:09:34.579Z,81.60
2018-06-05T04:12:03.604Z,81.40
2018-06-05T04:14:34.009Z,80.40
2018-06-05T04:17:03.057Z,80.40
2018-06-05T04:19:32.172Z,80.60
2018-06-05T04:22:01.088Z,80.80
2018-06-05T04:24:30.094Z,80.80
2018-06-05T04:26:59.030Z,81.10
2018-06-05T04:29:28.001Z,80.60
2018-06-05T04:31:56.940Z,80.50
2018-06-05T04:34:25.932Z,81.10
2018-06-05T04:36:54.877Z,80.30
2018-06-05T04:39:23.840Z,80.30
2018-06-05T04:41:52.776Z,80.70
2018-06-05T04:44:21.823Z,80.20
2018-06-05T04:46:50.768Z,80.50
2018-06-05T04:49:19.697Z,80.50
2018-06-05T04:51:48.776Z,80.20
2018-06-05T04:54:17.738Z,79.80
2018-06-05T04:56:46.676Z,79.90
2018-06-05T04:59:15.661Z,80.00
2018-06-05T05:01:44.617Z,79.70
2018-06-05T05:04:13.741Z,79.70
2018-06-05T05:06:42.739Z,79.50
2018-06-05T05:09:11.710Z,79.90
2018-06-05T05:11:40.657Z,79.70
2018-06-05T05:14:09.657Z,80.10
2018-06-05T05:16:38.928Z,79.30
2018-06-05T05:19:07.963Z,79.10
2018-06-05T05:21:36.954Z,78.70
2018-06-05T05:24:06.016Z,78.90
2018-06-05T05:26:34.997Z,79.10
2018-06-05T05:29:04.014Z,78.40
2018-06-05T05:31:33.049Z,78.30
2018-06-05T05:34:02.070Z,78.40
2018-06-05T05:36:31.078Z,78.10
2018-06-05T05:39:00.081Z,77.90
2018-06-05T05:41:29.103Z,78.10
2018-06-05T05:43:58.245Z,78.10
2018-06-05T05:46:27.203Z,78.20
2018-06-05T05:48:56.197Z,78.40
2018-06-05T05:51:25.205Z,78.10
2018-06-05T05:53:54.213Z,78.00
2018-06-05T05:56:23.241Z,77.70
2018-06-05T05:58:59.883Z,77.40
2018-06-05T06:01:28.939Z,77.20
2018-06-05T06:03:58.661Z,77.40
2018-06-05T06:06:27.683Z,78.30
2018-06-05T06:08:56.675Z,77.20
2018-06-05T06:11:25.698Z,77.00
2018-06-05T06:13:54.868Z,76.90
2018-06-05T06:16:23.905Z,77.10
2018-06-05T06:18:53.009Z,76.80
2018-06-05T06:21:22.009Z,77.20
2018-06-05T06:23:51.033Z,77.30
2018-06-05T06:26:20.141Z,77.30
2018-06-05T06:28:49.237Z,77.20
2018-06-05T06:31:18.331Z,77.40
2018-06-05T06:33:47.352Z,77.40
2018-06-05T06:36:16.360Z,77.30
2018-06-05T06:38:45.380Z,77.20
2018-06-05T06:41:14.393Z,77.10
2018-06-05T06:43:43.430Z,77.30
2018-06-05T06:46:12.484Z,77.20
2018-06-05T06:48:41.571Z,77.10
2018-06-05T06:51:10.469Z,76.90
2018-06-05T06:53:39.492Z,77.10
2018-06-05T06:56:08.563Z,77.20
2018-06-05T06:58:37.581Z,77.00
2018-06-05T07:01:06.812Z,76.90
2018-06-05T07:03:35.863Z,76.60
2018-06-05T07:06:04.875Z,76.50
2018-06-05T07:08:33.881Z,76.40
2018-06-05T07:11:02.901Z,76.70
2018-06-05T07:13:31.921Z,76.80
2018-06-05T07:16:00.956Z,76.60
2018-06-05T07:18:29.975Z,76.50
2018-06-05T07:20:59.003Z,76.50
2018-06-05T07:23:28.029Z,76.70
2018-06-05T07:25:57.057Z,76.90
2018-06-05T07:28:26.037Z,76.90
2018-06-05T07:30:55.007Z,77.30
2018-06-05T07:33:24.013Z,76.50
2018-06-05T07:35:53.079Z,76.30
2018-06-05T07:38:22.048Z,76.50
2018-06-05T07:40:51.001Z,76.30
2018-06-05T07:43:20.017Z,76.30
2018-06-05T07:45:49.065Z,76.10
2018-06-05T07:48:18.069Z,76.50
2018-06-05T07:50:47.054Z,76.70
2018-06-05T07:53:16.069Z,76.10
2018-06-05T07:55:45.132Z,76.20
2018-06-05T07:58:14.139Z,75.80
2018-06-05T08:00:43.194Z,76.10
2018-06-05T08:03:12.149Z,75.80
2018-06-05T08:05:41.221Z,75.70
2018-06-05T08:08:10.213Z,75.80
2018-06-05T08:10:39.221Z,75.80
2018-06-05T08:13:08.261Z,76.00
2018-06-05T08:15:37.310Z,75.60
2018-06-05T08:18:06.327Z,75.10
2018-06-05T08:20:35.344Z,74.90
2018-06-05T08:23:04.326Z,75.00
2018-06-05T08:25:33.350Z,75.40
2018-06-05T08:28:02.353Z,75.20
2018-06-05T08:30:31.345Z,74.70
2018-06-05T08:33:00.343Z,75.10
2018-06-05T08:35:29.557Z,74.50
2018-06-05T08:37:58.583Z,75.00
2018-06-05T08:40:27.603Z,74.50
2018-06-05T08:42:56.624Z,74.80
2018-06-05T08:45:25.615Z,74.30
2018-06-05T08:47:54.636Z,74.20
2018-06-05T08:50:23.632Z,74.00
2018-06-05T08:52:52.764Z,74.40
2018-06-05T08:55:21.842Z,73.60
2018-06-05T08:57:50.958Z,74.00
2018-06-05T09:00:20.006Z,74.00
2018-06-05T09:02:49.024Z,74.20
2018-06-05T09:05:18.055Z,74.20
2018-06-05T09:07:47.082Z,73.70
2018-06-05T09:10:16.075Z,73.30
2018-06-05T09:12:46.119Z,72.60
2018-06-05T09:15:15.230Z,73.70
2018-06-05T09:20:12.912Z,73.90
2018-06-05T09:25:10.644Z,73.60
2018-06-05T09:27:39.698Z,73.90
2018-06-05T09:30:10.620Z,74.20
2018-06-05T09:32:39.602Z,74.30
2018-06-05T09:35:08.680Z,74.50
2018-06-05T09:37:38.556Z,74.30
2018-06-05T09:40:07.647Z,73.30
2018-06-05T09:42:36.724Z,73.00
2018-06-05T09:45:05.744Z,72.50
2018-06-05T09:47:34.767Z,72.20
2018-06-05T09:50:03.786Z,72.10
2018-06-05T09:52:32.788Z,72.20
2018-06-05T09:57:30.617Z,72.30
2018-06-05T09:59:59.598Z,72.60
2018-06-05T10:02:28.674Z,72.40
2018-06-05T10:04:57.683Z,72.50
2018-06-05T10:07:26.741Z,72.50
2018-06-05T10:09:55.798Z,72.60
2018-06-05T10:12:24.869Z,72.40
2018-06-05T10:14:53.896Z,72.30
2018-06-05T10:17:22.898Z,72.50
2018-06-05T10:19:52.462Z,72.10
2018-06-05T10:22:21.449Z,73.20
2018-06-05T10:24:50.495Z,71.80
2018-06-05T10:27:19.554Z,72.10
2018-06-05T10:29:48.553Z,72.30
2018-06-05T10:32:17.634Z,71.70
2018-06-05T10:34:46.773Z,71.80
2018-06-05T10:37:15.821Z,72.60
2018-06-05T10:39:44.825Z,72.50
2018-06-05T10:42:13.789Z,72.50
2018-06-05T10:44:42.809Z,72.20
2018-06-05T10:47:12.405Z,72.20
2018-06-05T10:49:41.511Z,72.20
2018-06-05T10:52:10.497Z,71.40
2018-06-05T10:54:39.549Z,72.00
2018-06-05T10:57:08.553Z,71.40
2018-06-05T10:59:37.509Z,72.50
2018-06-05T11:02:06.568Z,72.40
2018-06-05T11:04:35.581Z,71.10
2018-06-05T11:07:04.676Z,70.70
2018-06-05T11:09:33.857Z,70.90
2018-06-05T11:12:02.823Z,71.00
2018-06-05T11:14:31.843Z,71.50
2018-06-05T11:17:00.871Z,71.20
2018-06-05T11:19:29.876Z,71.20
2018-06-05T11:21:58.853Z,71.00
2018-06-05T11:24:27.853Z,71.30
2018-06-05T11:26:56.864Z,71.30
2018-06-05T11:29:25.888Z,71.50
2018-06-05T11:31:54.885Z,71.40
2018-06-05T11:34:23.992Z,71.40
2018-06-05T11:36:53.027Z,71.60
2018-06-05T11:39:22.089Z,71.70
2018-06-05T11:41:51.099Z,71.80
2018-06-05T11:44:20.085Z,71.80
2018-06-05T11:46:49.166Z,71.90
2018-06-05T11:49:18.205Z,71.30
2018-06-05T11:51:47.225Z,71.20
2018-06-05T11:54:16.256Z,71.20
2018-06-05T11:56:45.204Z,70.80
2018-06-05T11:59:14.256Z,71.30
2018-06-05T12:01:43.445Z,71.40
2018-06-05T12:04:12.375Z,71.20
2018-06-05T12:06:41.371Z,71.30
2018-06-05T12:09:10.614Z,71.80
2018-06-05T12:11:39.590Z,71.40
2018-06-05T12:14:08.554Z,71.40
2018-06-05T12:16:37.590Z,71.90
2018-06-05T12:19:06.644Z,72.00
2018-06-05T12:21:35.616Z,71.90
2018-06-05T12:24:04.597Z,71.60
2018-06-05T12:26:33.650Z,71.40
2018-06-05T12:29:02.671Z,71.20
2018-06-05T12:31:31.703Z,71.20
2018-06-05T12:34:01.257Z,71.50
2018-06-05T12:36:30.263Z,71.30
2018-06-05T12:38:59.276Z,71.10
2018-06-05T12:41:28.268Z,71.50
2018-06-05T12:43:57.258Z,71.90
2018-06-05T12:46:26.241Z,71.80
2018-06-05T12:48:55.270Z,72.50
2018-06-05T12:51:24.258Z,72.50
2018-06-05T12:53:53.215Z,72.20
2018-06-05T12:56:22.230Z,71.90
2018-06-05T12:58:51.238Z,72.00
2018-06-05T13:01:20.323Z,71.80
2018-06-05T13:03:49.282Z,71.80
2018-06-05T13:06:18.313Z,71.60
2018-06-05T13:08:47.341Z,71.60
2018-06-05T13:11:16.411Z,71.80
2018-06-05T13:13:45.467Z,71.50
2018-06-05T13:16:14.489Z,71.20
2018-06-05T13:18:43.521Z,71.80
2018-06-05T13:21:12.511Z,71.40
2018-06-05T13:23:41.504Z,71.60
2018-06-05T13:26:10.603Z,71.60
2018-06-05T13:28:40.401Z,72.00
2018-06-05T13:31:09.463Z,71.90
2018-06-05T13:33:38.463Z,71.80
2018-06-05T13:36:07.477Z,71.50
2018-06-05T13:38:36.526Z,70.90
2018-06-05T13:41:05.601Z,71.50
2018-06-05T13:43:34.637Z,71.60
2018-06-05T13:46:03.608Z,71.20
2018-06-05T13:48:32.583Z,71.50
2018-06-05T13:51:01.619Z,71.90
2018-06-05T13:53:30.742Z,71.20
2018-06-05T13:56:00.475Z,70.90
2018-06-05T13:58:29.597Z,70.40
2018-06-05T14:00:58.647Z,70.90
2018-06-05T14:03:27.749Z,71.00
2018-06-05T14:05:56.717Z,70.80
2018-06-05T14:08:25.760Z,70.90
2018-06-05T14:10:54.863Z,70.70
2018-06-05T14:13:23.859Z,70.60
2018-06-05T14:15:52.878Z,71.20
2018-06-05T14:18:21.937Z,71.10
2018-06-05T14:20:51.015Z,71.30
2018-06-05T14:23:20.033Z,71.70
2018-06-05T14:25:49.039Z,70.80
2018-06-05T14:28:18.083Z,69.60
2018-06-05T14:30:47.075Z,70.80
2018-06-05T14:33:16.045Z,69.40
2018-06-05T14:35:45.041Z,70.30
2018-06-05T14:38:14.049Z,70.40
2018-06-05T14:40:43.049Z,70.50
2018-06-05T14:43:12.053Z,68.00
2018-06-05T14:45:41.074Z,69.60
2018-06-05T14:48:10.093Z,66.90
2018-06-05T14:50:39.204Z,68.40
2018-06-05T14:53:08.263Z,67.30
2018-06-05T14:55:37.273Z,67.10
2018-06-05T14:58:06.995Z,67.60
2018-06-05T15:00:36.107Z,67.20
2018-06-05T15:03:05.225Z,66.40
2018-06-05T15:05:34.249Z,67.30
2018-06-05T15:08:03.216Z,67.70
2018-06-05T15:10:32.317Z,65.30
2018-06-05T15:13:01.372Z,65.80
2018-06-05T15:15:30.327Z,67.60
2018-06-05T15:17:59.465Z,65.90
2018-06-05T15:20:28.515Z,66.50
2018-06-05T15:22:57.487Z,65.40
2018-06-05T15:25:26.752Z,64.10
2018-06-05T15:27:55.760Z,64.40
2018-06-05T15:30:24.772Z,64.20
2018-06-05T15:32:53.789Z,65.00
2018-06-05T15:35:22.841Z,66.00
2018-06-05T15:37:51.933Z,62.90
2018-06-05T15:40:20.988Z,65.10
2018-06-05T15:42:49.958Z,64.00
2018-06-05T15:45:18.974Z,63.80
2018-06-05T15:47:48.002Z,64.70
2018-06-05T15:50:17.047Z,64.60
2018-06-05T15:52:46.085Z,64.30
2018-06-05T15:55:15.224Z,64.00
2018-06-05T15:57:44.230Z,63.20
2018-06-05T16:00:13.225Z,64.80
2018-06-05T16:02:42.318Z,64.20
2018-06-05T16:05:11.297Z,64.20
2018-06-05T16:07:40.368Z,65.10
2018-06-05T16:10:09.434Z,65.50
2018-06-05T16:12:38.496Z,64.60
2018-06-05T16:15:07.541Z,64.10
2018-06-05T16:17:36.586Z,63.10
2018-06-05T16:20:05.560Z,64.50
2018-06-05T16:22:34.592Z,63.50
2018-06-05T16:25:03.774Z,63.90
2018-06-05T16:27:32.757Z,63.50
2018-06-05T16:30:01.736Z,64.80
2018-06-05T16:32:30.778Z,63.90
2018-06-05T16:34:59.778Z,64.60
2018-06-05T16:37:28.770Z,63.40
2018-06-05T16:39:57.834Z,64.20
2018-06-05T16:42:26.884Z,64.70
2018-06-05T16:44:55.888Z,65.30
2018-06-05T16:47:24.956Z,64.20
2018-06-05T16:49:53.914Z,64.10
2018-06-05T16:52:22.964Z,64.30
2018-06-05T16:54:51.953Z,64.20
2018-06-05T16:57:20.930Z,63.70
2018-06-05T16:59:49.972Z,64.40
2018-06-05T17:02:18.981Z,65.30
2018-06-05T17:04:48.012Z,64.60
2018-06-05T17:07:16.967Z,64.90
2018-06-05T17:09:45.982Z,64.80
2018-06-05T17:12:15.034Z,64.80
2018-06-05T17:14:44.001Z,64.90
2018-06-05T17:17:13.139Z,65.10
2018-06-05T17:19:42.135Z,64.00
2018-06-05T17:22:11.165Z,64.50
2018-06-05T17:24:40.163Z,65.10
2018-06-05T17:27:09.206Z,63.90
2018-06-05T17:29:38.188Z,64.40
2018-06-05T17:34:35.875Z,64.40
2018-06-05T17:37:04.851Z,64.00
2018-06-05T17:39:33.879Z,63.60
2018-06-05T17:42:02.914Z,63.70
2018-06-05T17:44:31.897Z,64.00
2018-06-05T17:47:00.935Z,64.20
2018-06-05T17:49:30.014Z,64.40
2018-06-05T17:51:59.021Z,63.20
2018-06-05T17:54:28.001Z,63.60
2018-06-05T17:56:57.021Z,63.70
2018-06-05T17:59:26.005Z,63.30
2018-06-05T18:01:55.139Z,63.60
2018-06-05T18:04:24.513Z,64.00
2018-06-05T18:06:53.485Z,64.60
2018-06-05T18:09:22.468Z,63.90
2018-06-05T18:11:51.480Z,63.50
2018-06-05T18:14:20.513Z,63.20
2018-06-05T18:16:49.553Z,63.10
2018-06-05T18:19:18.589Z,64.00
2018-06-05T18:21:47.635Z,63.20
2018-06-05T18:24:16.692Z,63.90
2018-06-05T18:26:45.689Z,64.40
2018-06-05T18:29:14.713Z,63.40
2018-06-05T18:31:43.724Z,63.70
2018-06-05T18:34:12.824Z,63.60
2018-06-05T18:36:41.810Z,63.80
2018-06-05T18:39:10.824Z,64.30
2018-06-05T18:41:39.946Z,64.00
2018-06-05T18:44:08.984Z,64.00
2018-06-05T18:46:38.022Z,63.40
2018-06-05T18:49:07.008Z,63.90
2018-06-05T18:51:36.051Z,64.10
2018-06-05T18:54:05.062Z,64.10
2018-06-05T18:56:34.034Z,63.80
2018-06-05T18:59:03.054Z,63.90
2018-06-05T19:01:32.047Z,64.40
2018-06-05T19:04:01.532Z,65.00
2018-06-05T19:06:30.606Z,64.40
2018-06-05T19:08:59.602Z,64.10
2018-06-05T19:11:28.623Z,64.30
2018-06-05T19:13:57.630Z,64.40
2018-06-05T19:18:55.241Z,64.60
2018-06-05T19:21:24.235Z,64.70
2018-06-05T19:23:53.313Z,64.80
2018-06-05T19:28:50.901Z,65.20
2018-06-05T19:31:19.995Z,64.90
2018-06-05T19:33:48.998Z,64.90
2018-06-05T19:36:17.989Z,65.30
2018-06-05T19:38:47.152Z,65.30
2018-06-05T19:41:16.177Z,65.30
2018-06-05T19:43:45.173Z,65.30
2018-06-05T19:46:14.186Z,65.20
2018-06-05T19:48:44.146Z,66.20
2018-06-05T19:51:13.090Z,66.70
2018-06-05T19:53:42.145Z,66.60
2018-06-05T19:56:11.128Z,66.00
2018-06-05T19:58:40.119Z,65.90
2018-06-05T20:01:09.251Z,66.40
2018-06-05T20:03:38.278Z,66.40
2018-06-05T20:06:07.313Z,66.20
2018-06-05T20:08:36.325Z,66.40
2018-06-05T20:11:05.325Z,66.50
2018-06-05T20:13:34.344Z,67.00
2018-06-05T20:16:03.333Z,66.10
2018-06-05T20:18:32.325Z,67.00
2018-06-05T20:21:01.325Z,66.30
2018-06-05T20:23:30.445Z,66.10
2018-06-05T20:25:59.447Z,66.30
2018-06-05T20:28:28.750Z,65.60
2018-06-05T20:30:57.763Z,65.80
2018-06-05T20:35:55.444Z,65.70
2018-06-05T20:38:24.425Z,65.70
2018-06-05T20:40:53.407Z,66.10
2018-06-05T20:43:22.445Z,65.90
2018-06-05T20:45:51.539Z,66.10
2018-06-05T20:48:20.521Z,66.10
2018-06-05T20:50:49.509Z,66.20
2018-06-05T20:53:18.522Z,65.90
2018-06-05T20:55:47.554Z,66.40
2018-06-05T20:58:16.529Z,66.20
2018-06-05T21:00:45.587Z,66.60
2018-06-05T21:03:14.551Z,66.10
2018-06-05T21:05:43.620Z,66.60
2018-06-05T21:08:12.645Z,66.70
2018-06-05T21:10:41.620Z,67.10
2018-06-05T21:13:10.585Z,68.70
2018-06-05T21:15:39.601Z,69.50
2018-06-05T21:18:08.628Z,69.70
2018-06-05T21:20:37.750Z,71.10
2018-06-05T21:23:06.737Z,70.20
2018-06-05T21:25:35.818Z,70.60
2018-06-05T21:28:05.093Z,70.90
2018-06-05T21:30:34.065Z,70.70
2018-06-05T21:33:03.066Z,69.70
2018-06-05T21:35:32.061Z,69.80
2018-06-05T21:38:01.043Z,71.60
2018-06-05T21:40:30.007Z,71.80
2018-06-05T21:42:58.991Z,72.60
2018-06-05T21:45:28.009Z,72.90
2018-06-05T21:47:56.980Z,71.70
2018-06-05T21:50:25.945Z,71.40
2018-06-05T21:55:23.821Z,70.50
2018-06-05T21:57:52.802Z,70.80
2018-06-05T22:00:23.378Z,69.80
2018-06-05T22:02:52.354Z,68.90
2018-06-05T22:05:21.407Z,69.60
2018-06-05T22:07:50.387Z,69.90
2018-06-05T22:10:19.384Z,71.60
2018-06-05T22:12:48.444Z,70.90
2018-06-05T22:15:17.442Z,70.70
2018-06-05T22:17:46.437Z,72.60
2018-06-05T22:20:15.424Z,72.40
2018-06-05T22:22:44.439Z,72.90
2018-06-05T22:25:13.458Z,73.60
2018-06-05T22:27:42.437Z,72.40
2018-06-05T22:30:11.458Z,72.80
2018-06-05T22:32:40.498Z,71.20
2018-06-05T22:35:09.498Z,71.20
2018-06-05T22:37:38.478Z,72.30
2018-06-05T22:40:07.464Z,73.30
2018-06-05T22:42:36.520Z,72.80
2018-06-05T22:45:05.518Z,71.30
2018-06-05T22:47:34.496Z,71.30
2018-06-05T22:50:03.546Z,71.00
2018-06-05T22:52:32.518Z,71.10
2018-06-05T22:55:01.540Z,72.60
2018-06-05T22:57:30.556Z,75.30
2018-06-05T22:59:59.540Z,73.80
2018-06-05T23:02:28.536Z,75.30
2018-06-05T23:04:57.528Z,73.60
2018-06-05T23:07:26.776Z,75.90
2018-06-05T23:09:55.752Z,74.60
2018-06-05T23:12:24.726Z,74.60
2018-06-05T23:14:53.784Z,77.10
2018-06-05T23:17:22.834Z,74.70
2018-06-05T23:19:51.799Z,75.00
2018-06-05T23:22:20.872Z,73.80
2018-06-05T23:24:49.853Z,77.50
2018-06-05T23:27:18.876Z,73.70
2018-06-05T23:29:47.852Z,76.10
2018-06-05T23:32:16.871Z,75.50
2018-06-05T23:34:45.900Z,76.20
2018-06-05T23:37:14.911Z,75.10
2018-06-05T23:39:43.932Z,76.80
2018-06-05T23:42:12.925Z,75.30
2018-06-05T23:44:41.929Z,74.70
2018-06-05T23:47:10.930Z,77.70
2018-06-05T23:49:39.913Z,75.50
2018-06-05T23:52:08.921Z,75.60
2018-06-05T23:54:37.909Z,77.00
2018-06-05T23:57:06.953Z,77.80
